createdAt,value
2019-02-25T00:02:45.997Z,7.27
2019-02-25T00:07:50.749Z,6.87
2019-02-25T00:12:55.555Z,6.63
2019-02-25T00:18:00.319Z,7.20
2019-02-25T00:23:05.091Z,6.23
2019-02-25T00:28:09.866Z,6.30
2019-02-25T00:33:14.656Z,6.10
2019-02-25T00:38:19.434Z,5.70
2019-02-25T00:43:24.234Z,6.03
2019-02-25T00:48:29.031Z,5.70
2019-02-25T00:53:33.821Z,5.17
2019-02-25T00:58:38.586Z,5.40
2019-02-25T01:03:43.359Z,5.83
2019-02-25T01:08:48.138Z,5.70
2019-02-25T01:13:52.940Z,5.27
2019-02-25T01:18:57.726Z,5.70
2019-02-25T01:24:02.508Z,5.13
2019-02-25T01:29:07.270Z,4.13
2019-02-25T01:34:12.049Z,4.03
2019-02-25T01:39:36.118Z,5.13
2019-02-25T01:44:42.561Z,4.40
2019-02-25T01:49:47.352Z,4.73
2019-02-25T01:54:52.138Z,4.23
2019-02-25T01:59:56.908Z,3.97
2019-02-25T02:05:01.684Z,4.47
2019-02-25T02:10:07.347Z,4.27
2019-02-25T02:15:13.871Z,4.03
2019-02-25T02:20:18.640Z,4.20
2019-02-25T02:25:23.478Z,3.50
2019-02-25T02:30:28.268Z,3.47
2019-02-25T02:35:33.076Z,3.67
2019-02-25T02:40:37.871Z,3.20
2019-02-25T02:45:52.412Z,4.53
2019-02-25T02:50:57.204Z,3.60
2019-02-25T02:56:01.989Z,4.50
2019-02-25T03:01:07.746Z,4.10
2019-02-25T03:06:12.530Z,3.83
2019-02-25T03:11:17.332Z,3.17
2019-02-25T03:16:22.130Z,3.50
2019-02-25T03:21:26.906Z,3.40
2019-02-25T03:26:31.689Z,4.20
2019-02-25T03:31:36.475Z,3.60
2019-02-25T03:36:41.292Z,4.07
2019-02-25T03:41:46.089Z,3.43
2019-02-25T03:46:50.913Z,5.10
2019-02-25T03:51:56.667Z,3.53
2019-02-25T03:57:01.446Z,3.57
2019-02-25T04:02:06.236Z,3.57
2019-02-25T04:07:11.028Z,2.83
2019-02-25T04:12:15.830Z,3.40
2019-02-25T04:17:20.612Z,2.90
2019-02-25T04:22:25.396Z,3.00
2019-02-25T04:27:30.181Z,2.83
2019-02-25T04:32:36.552Z,3.03
2019-02-25T04:37:41.332Z,2.83
2019-02-25T04:42:46.122Z,2.40
2019-02-25T04:47:50.941Z,2.27
2019-02-25T04:52:55.735Z,2.60
2019-02-25T04:58:00.515Z,3.03
2019-02-25T05:03:05.314Z,3.83
2019-02-25T05:08:10.086Z,2.30
2019-02-25T05:13:14.859Z,3.40
2019-02-25T05:18:19.662Z,4.87
2019-02-25T05:23:24.443Z,4.50
2019-02-25T05:28:29.228Z,4.03
2019-02-25T05:33:34.005Z,3.43
2019-02-25T05:38:38.785Z,2.50
2019-02-25T05:43:43.596Z,2.83
2019-02-25T05:48:48.392Z,2.70
2019-02-25T05:53:53.279Z,2.97
2019-02-25T05:58:58.062Z,3.00
2019-02-25T06:04:02.836Z,2.20
2019-02-25T06:09:07.644Z,1.93
2019-02-25T06:14:12.432Z,3.20
2019-02-25T06:19:17.216Z,3.50
2019-02-25T06:24:21.995Z,2.40
2019-02-25T06:29:26.774Z,2.90
2019-02-25T06:34:31.556Z,2.93
2019-02-25T06:39:36.328Z,3.33
2019-02-25T06:44:41.141Z,2.63
2019-02-25T06:49:45.929Z,3.03
2019-02-25T06:54:50.710Z,3.80
2019-02-25T06:59:55.488Z,3.17
2019-02-25T07:05:15.367Z,3.27
2019-02-25T07:10:39.707Z,3.20
2019-02-25T07:16:03.571Z,2.70
2019-02-25T07:21:33.443Z,2.20
2019-02-25T07:27:06.237Z,2.70
2019-02-25T07:32:30.210Z,2.40
2019-02-25T07:38:00.127Z,2.23
2019-02-25T07:43:22.815Z,4.23
2019-02-25T07:48:45.855Z,4.33
2019-02-25T07:54:01.145Z,3.62
2019-02-25T07:59:11.859Z,3.87
2019-02-25T08:04:25.913Z,3.02
2019-02-25T08:09:42.408Z,2.70
2019-02-25T08:15:09.124Z,2.80
2019-02-25T08:20:28.675Z,2.90
2019-02-25T08:25:46.023Z,2.65
2019-02-25T08:31:06.526Z,2.60
2019-02-25T08:37:11.863Z,2.83
2019-02-25T08:42:37.830Z,2.35
2019-02-25T08:47:57.843Z,2.65
2019-02-25T08:53:02.614Z,2.90
2019-02-25T08:58:07.389Z,3.10
2019-02-25T09:03:12.151Z,2.98
2019-02-25T09:08:16.924Z,2.90
2019-02-25T09:13:23.749Z,2.95
2019-02-25T09:18:28.140Z,3.98
2019-02-25T09:23:32.911Z,3.95
2019-02-25T09:28:37.677Z,3.75
2019-02-25T09:33:42.455Z,3.47
2019-02-25T09:38:47.263Z,3.00
2019-02-25T09:43:52.088Z,3.17
2019-02-25T09:48:56.850Z,3.52
2019-02-25T09:54:01.618Z,3.70
2019-02-25T09:59:06.396Z,3.52
2019-02-25T10:04:11.174Z,4.10
2019-02-25T10:09:15.944Z,4.05
2019-02-25T10:14:20.728Z,4.17
2019-02-25T10:19:25.500Z,4.37
2019-02-25T10:24:30.285Z,4.12
2019-02-25T10:29:35.067Z,4.60
2019-02-25T10:34:39.853Z,4.70
2019-02-25T10:39:45.481Z,4.20
2019-02-25T10:44:51.147Z,4.35
2019-02-25T10:49:56.569Z,4.35
2019-02-25T10:55:02.344Z,4.55
2019-02-25T11:00:11.740Z,4.22
2019-02-25T11:05:19.093Z,4.60
2019-02-25T11:10:35.905Z,4.58
2019-02-25T11:15:42.377Z,5.05
2019-02-25T11:20:48.874Z,4.80
2019-02-25T11:25:55.383Z,5.10
2019-02-25T11:31:00.022Z,5.10
2019-02-25T11:36:24.098Z,4.60
2019-02-25T11:41:29.747Z,4.47
2019-02-25T11:46:35.326Z,4.83
2019-02-25T11:51:40.104Z,4.45
2019-02-25T11:56:44.879Z,4.15
2019-02-25T12:01:49.639Z,3.90
2019-02-25T12:06:54.404Z,4.70
2019-02-25T12:11:59.192Z,5.00
2019-02-25T12:17:03.962Z,4.65
2019-02-25T12:22:08.746Z,5.00
2019-02-25T12:27:13.519Z,3.80
2019-02-25T12:32:18.302Z,5.20
2019-02-25T12:37:23.072Z,5.15
2019-02-25T12:42:27.856Z,4.28
2019-02-25T12:47:32.667Z,4.47
2019-02-25T12:52:37.456Z,4.40
2019-02-25T12:57:42.243Z,4.17
2019-02-25T13:02:47.007Z,4.60
2019-02-25T13:07:51.779Z,4.50
2019-02-25T13:12:56.571Z,4.37
2019-02-25T13:18:01.356Z,3.97
2019-02-25T13:23:06.149Z,3.85
2019-02-25T13:28:11.035Z,4.65
2019-02-25T13:33:15.823Z,4.20
2019-02-25T13:38:20.623Z,3.50
2019-02-25T13:43:27.475Z,4.25
2019-02-25T13:48:31.926Z,3.83
2019-02-25T13:53:37.870Z,4.47
2019-02-25T13:58:42.695Z,4.07
2019-02-25T14:03:47.491Z,4.10
2019-02-25T14:08:52.292Z,3.83
2019-02-25T14:13:57.440Z,4.63
2019-02-25T14:19:02.554Z,4.57
2019-02-25T14:24:07.343Z,4.50
2019-02-25T14:29:12.143Z,3.77
2019-02-25T14:34:16.927Z,4.77
2019-02-25T14:39:27.838Z,4.57
2019-02-25T14:44:32.665Z,4.30
2019-02-25T14:49:37.787Z,4.50
2019-02-25T14:54:45.809Z,4.23
2019-02-25T14:59:50.259Z,4.70
2019-02-25T15:04:55.163Z,4.80
2019-02-25T15:10:01.888Z,4.30
2019-02-25T15:15:08.820Z,4.50
2019-02-25T15:20:16.363Z,4.73
2019-02-25T15:25:20.118Z,4.70
2019-02-25T15:30:27.462Z,5.80
2019-02-25T15:35:34.451Z,5.03
2019-02-25T15:40:38.206Z,7.27
2019-02-25T15:45:43.092Z,5.93
2019-02-25T15:50:50.327Z,5.40
2019-02-25T15:55:57.223Z,5.30
2019-02-25T16:01:01.176Z,5.23
2019-02-25T16:06:08.377Z,6.00
2019-02-25T16:11:16.186Z,5.33
2019-02-25T16:16:20.678Z,6.03
2019-02-25T16:21:26.612Z,6.08
2019-02-25T16:26:34.282Z,8.25
2019-02-25T16:31:39.088Z,8.03
2019-02-25T16:36:45.218Z,6.92
2019-02-25T16:41:50.342Z,6.97
2019-02-25T16:46:55.175Z,7.22
2019-02-25T16:52:01.894Z,9.38
2019-02-25T16:57:07.262Z,7.03
2019-02-25T17:02:14.147Z,6.83
2019-02-25T17:07:20.456Z,6.60
2019-02-25T17:12:25.817Z,6.72
2019-02-25T17:17:31.502Z,6.72
2019-02-25T17:22:36.314Z,6.50
2019-02-25T17:27:41.315Z,6.60
2019-02-25T17:32:46.667Z,8.08
2019-02-25T17:37:53.353Z,8.28
2019-02-25T17:42:58.979Z,8.20
2019-02-25T17:48:08.099Z,8.50
2019-02-25T17:53:12.840Z,8.90
2019-02-25T17:58:19.325Z,8.63
2019-02-25T18:03:26.344Z,9.18
2019-02-25T18:08:32.221Z,11.38
2019-02-25T18:13:37.441Z,10.78
2019-02-25T18:18:43.210Z,10.13
2019-02-25T18:23:49.419Z,9.70
2019-02-25T18:28:55.039Z,8.85
2019-02-25T18:34:00.128Z,9.33
2019-02-25T18:39:08.558Z,9.28
2019-02-25T18:44:15.259Z,9.38
2019-02-25T18:49:20.051Z,10.18
2019-02-25T18:54:25.458Z,9.73
2019-02-25T18:59:30.329Z,9.28
2019-02-25T19:04:36.685Z,9.63
2019-02-25T19:09:43.062Z,9.60
2019-02-25T19:14:52.971Z,9.45
2019-02-25T19:19:55.995Z,9.18
2019-02-25T19:25:00.888Z,8.33
2019-02-25T19:30:06.315Z,8.98
2019-02-25T19:35:13.215Z,9.10
2019-02-25T19:40:19.559Z,9.15
2019-02-25T19:45:25.186Z,7.95
2019-02-25T19:50:31.821Z,8.48
2019-02-25T19:55:38.663Z,9.48
2019-02-25T20:00:44.376Z,9.08
2019-02-25T20:05:51.392Z,9.55
2019-02-25T20:10:55.819Z,9.90
2019-02-25T20:16:07.524Z,8.68
2019-02-25T20:21:08.164Z,8.75
2019-02-25T20:26:13.465Z,9.58
2019-02-25T20:31:18.735Z,9.30
2019-02-25T20:36:24.206Z,8.83
2019-02-25T20:41:30.985Z,8.63
2019-02-25T20:46:35.947Z,8.87
2019-02-25T20:51:40.824Z,9.05
2019-02-25T20:56:46.824Z,9.50
2019-02-25T21:01:52.730Z,8.50
2019-02-25T21:06:57.544Z,8.40
2019-02-25T21:12:02.367Z,8.68
2019-02-25T21:17:07.207Z,8.68
2019-02-25T21:22:12.071Z,8.30
2019-02-25T21:27:16.876Z,9.13
2019-02-25T21:32:22.092Z,8.23
2019-02-25T21:37:29.328Z,8.73
2019-02-25T21:42:34.255Z,8.60
2019-02-25T21:47:39.065Z,9.48
2019-02-25T21:52:45.627Z,7.33
2019-02-25T21:57:52.526Z,8.20
2019-02-25T22:02:56.962Z,9.73
2019-02-25T22:08:03.670Z,9.20
2019-02-25T22:13:09.454Z,8.98
2019-02-25T22:18:14.680Z,8.05
2019-02-25T22:23:21.956Z,7.47
2019-02-25T22:28:25.981Z,8.30
2019-02-25T22:33:31.723Z,9.07
2019-02-25T22:38:36.622Z,9.63
2019-02-25T22:43:43.593Z,9.43
2019-02-25T22:48:47.832Z,8.53
2019-02-25T22:53:52.607Z,8.60
2019-02-25T22:58:58.680Z,9.37
2019-02-25T23:04:03.860Z,9.60
2019-02-25T23:09:12.101Z,9.77
2019-02-25T23:14:17.934Z,10.27
2019-02-25T23:19:22.561Z,9.37
2019-02-25T23:24:30.002Z,9.10
2019-02-25T23:29:33.851Z,8.93
2019-02-25T23:34:41.109Z,9.80
2019-02-25T23:39:46.764Z,9.13
2019-02-25T23:44:51.718Z,10.10
2019-02-25T23:49:57.485Z,10.73
2019-02-25T23:55:02.283Z,9.80
